createdAt,value
2019-03-29T00:00:29.019Z,89.20
2019-03-29T00:02:57.008Z,89.60
2019-03-29T00:05:25.080Z,89.60
2019-03-29T00:07:53.054Z,89.30
2019-03-29T00:10:21.148Z,90.10
2019-03-29T00:12:49.224Z,89.90
2019-03-29T00:15:17.223Z,89.60
2019-03-29T00:17:45.192Z,89.40
2019-03-29T00:20:13.149Z,89.20
2019-03-29T00:22:41.145Z,89.50
2019-03-29T00:25:09.115Z,90.00
2019-03-29T00:27:36.973Z,90.40
2019-03-29T00:30:05.213Z,90.00
2019-03-29T00:32:33.248Z,90.00
2019-03-29T00:35:01.204Z,90.00
2019-03-29T00:37:29.180Z,90.00
2019-03-29T00:39:57.072Z,90.00
2019-03-29T00:42:25.028Z,90.00
2019-03-29T00:44:53.196Z,90.20
2019-03-29T00:47:21.199Z,90.20
2019-03-29T00:49:49.203Z,90.10
2019-03-29T00:52:17.192Z,90.20
2019-03-29T00:54:45.165Z,90.30
2019-03-29T00:57:13.128Z,90.40
2019-03-29T00:59:41.100Z,90.40
2019-03-29T01:02:09.300Z,90.60
2019-03-29T01:04:37.261Z,90.50
2019-03-29T01:07:05.341Z,90.60
2019-03-29T01:09:33.410Z,90.50
2019-03-29T01:12:01.486Z,90.50
2019-03-29T01:14:29.472Z,90.50
2019-03-29T01:16:57.428Z,90.60
2019-03-29T01:19:25.607Z,91.00
2019-03-29T01:21:53.596Z,91.50
2019-03-29T01:24:21.670Z,91.20
2019-03-29T01:26:49.744Z,90.60
2019-03-29T01:29:17.727Z,90.40
2019-03-29T01:31:45.688Z,90.40
2019-03-29T01:34:13.657Z,90.60
2019-03-29T01:36:41.648Z,90.60
2019-03-29T01:39:09.612Z,90.70
2019-03-29T01:41:37.568Z,91.00
2019-03-29T01:44:05.558Z,90.90
2019-03-29T01:46:33.533Z,90.70
2019-03-29T01:49:01.516Z,90.60
2019-03-29T01:51:29.373Z,90.80
2019-03-29T01:53:57.356Z,90.40
2019-03-29T01:56:25.320Z,90.40
2019-03-29T01:58:53.287Z,90.60
2019-03-29T02:01:21.272Z,90.60
2019-03-29T02:03:49.373Z,90.60
2019-03-29T02:06:17.363Z,90.80
2019-03-29T02:08:45.542Z,90.80
2019-03-29T02:11:14.235Z,91.00
2019-03-29T02:13:43.008Z,90.60
2019-03-29T02:16:10.963Z,90.60
2019-03-29T02:18:39.263Z,90.60
2019-03-29T02:21:08.108Z,90.60
2019-03-29T02:23:36.181Z,90.80
2019-03-29T02:26:04.816Z,90.40
2019-03-29T02:28:32.808Z,90.40
2019-03-29T02:31:00.782Z,90.50
2019-03-29T02:33:28.770Z,90.50
2019-03-29T02:35:56.845Z,90.60
2019-03-29T02:38:24.908Z,90.60
2019-03-29T02:40:52.890Z,90.70
2019-03-29T02:43:20.977Z,90.70
2019-03-29T02:45:48.959Z,90.60
2019-03-29T02:48:17.348Z,90.60
2019-03-29T02:50:45.409Z,90.60
2019-03-29T02:53:13.403Z,90.50
2019-03-29T02:55:41.467Z,90.60
2019-03-29T02:58:09.314Z,90.80
2019-03-29T03:00:37.308Z,91.00
2019-03-29T03:03:05.391Z,91.10
2019-03-29T03:05:33.377Z,90.80
2019-03-29T03:08:01.501Z,90.90
2019-03-29T03:10:29.463Z,90.90
2019-03-29T03:12:57.541Z,91.20
2019-03-29T03:15:25.611Z,91.20
2019-03-29T03:17:53.597Z,91.40
2019-03-29T03:20:21.564Z,91.60
2019-03-29T03:22:50.089Z,91.70
2019-03-29T03:25:18.208Z,91.80
2019-03-29T03:27:46.178Z,91.70
2019-03-29T03:30:14.350Z,91.90
2019-03-29T03:32:42.340Z,91.60
2019-03-29T03:35:11.227Z,91.40
2019-03-29T03:37:39.218Z,91.20
2019-03-29T03:40:08.105Z,91.20
2019-03-29T03:42:36.105Z,91.30
2019-03-29T03:45:05.526Z,90.90
2019-03-29T03:47:33.622Z,91.00
2019-03-29T03:50:01.908Z,91.00
2019-03-29T03:52:30.387Z,91.00
2019-03-29T03:54:58.380Z,90.80
2019-03-29T03:57:27.969Z,90.90
2019-03-29T03:59:56.231Z,90.90
2019-03-29T04:02:24.201Z,91.00
2019-03-29T04:04:52.202Z,91.00
2019-03-29T04:07:20.226Z,91.00
2019-03-29T04:09:50.372Z,91.00
2019-03-29T04:12:18.451Z,91.00
2019-03-29T04:14:46.506Z,91.10
2019-03-29T04:17:14.474Z,90.90
2019-03-29T04:19:42.453Z,91.10
2019-03-29T04:22:10.445Z,91.10
2019-03-29T04:24:38.538Z,90.90
2019-03-29T04:27:06.416Z,90.70
2019-03-29T04:29:34.389Z,90.80
2019-03-29T04:32:02.388Z,90.60
2019-03-29T04:34:30.354Z,90.80
2019-03-29T04:36:58.316Z,91.00
2019-03-29T04:39:26.292Z,90.90
2019-03-29T04:41:54.316Z,91.00
2019-03-29T04:44:22.256Z,90.90
2019-03-29T04:46:50.260Z,91.50
2019-03-29T04:49:18.401Z,91.00
2019-03-29T04:51:46.373Z,91.10
2019-03-29T04:54:14.331Z,91.20
2019-03-29T04:56:42.413Z,92.70
2019-03-29T04:59:10.478Z,92.10
2019-03-29T05:01:38.455Z,92.00
2019-03-29T05:04:06.436Z,92.50
2019-03-29T05:06:34.242Z,91.90
2019-03-29T05:09:02.423Z,91.50
2019-03-29T05:11:30.367Z,91.40
2019-03-29T05:13:58.317Z,91.60
2019-03-29T05:16:26.315Z,91.40
2019-03-29T05:18:54.282Z,91.20
2019-03-29T05:21:22.264Z,91.20
2019-03-29T05:23:50.298Z,91.10
2019-03-29T05:26:18.281Z,91.00
2019-03-29T05:28:46.268Z,90.90
2019-03-29T05:31:14.234Z,90.90
2019-03-29T05:33:42.220Z,91.40
2019-03-29T05:36:10.228Z,91.90
2019-03-29T05:38:38.308Z,91.90
2019-03-29T05:41:06.405Z,92.00
2019-03-29T05:43:34.376Z,91.90
2019-03-29T05:46:02.493Z,91.40
2019-03-29T05:48:30.601Z,91.30
2019-03-29T05:50:58.612Z,91.30
2019-03-29T05:53:26.581Z,91.30
2019-03-29T05:55:54.664Z,92.20
2019-03-29T05:58:22.744Z,91.70
2019-03-29T06:00:50.741Z,92.40
2019-03-29T06:03:18.774Z,92.90
2019-03-29T06:05:46.765Z,92.40
2019-03-29T06:08:14.880Z,91.90
2019-03-29T06:10:48.707Z,91.60
2019-03-29T06:13:12.656Z,92.30
2019-03-29T06:15:40.631Z,92.30
2019-03-29T06:18:08.638Z,93.20
2019-03-29T06:20:36.636Z,93.40
2019-03-29T06:23:04.604Z,93.20
2019-03-29T06:25:32.581Z,93.30
2019-03-29T06:28:00.636Z,93.30
2019-03-29T06:30:30.093Z,93.40
2019-03-29T06:32:58.161Z,93.10
2019-03-29T06:35:28.729Z,93.30
2019-03-29T06:37:56.981Z,93.40
2019-03-29T06:40:25.649Z,93.40
2019-03-29T06:42:53.654Z,93.50
2019-03-29T06:45:21.486Z,93.80
2019-03-29T06:47:49.538Z,94.00
2019-03-29T06:50:17.581Z,93.70
2019-03-29T06:52:45.648Z,94.00
2019-03-29T06:55:13.725Z,93.60
2019-03-29T06:57:41.644Z,93.70
2019-03-29T07:00:09.805Z,93.60
2019-03-29T07:02:37.971Z,94.00
2019-03-29T07:05:06.097Z,93.70
2019-03-29T07:07:34.064Z,93.10
2019-03-29T07:10:02.068Z,93.90
2019-03-29T07:12:30.242Z,93.70
2019-03-29T07:14:58.221Z,93.60
2019-03-29T07:17:26.301Z,93.50
2019-03-29T07:19:54.268Z,93.40
2019-03-29T07:22:22.366Z,93.40
2019-03-29T07:24:50.357Z,93.30
2019-03-29T07:27:18.483Z,93.10
2019-03-29T07:29:46.471Z,92.70
2019-03-29T07:32:14.458Z,92.40
2019-03-29T07:34:42.441Z,92.00
2019-03-29T07:37:10.504Z,91.50
2019-03-29T07:39:38.480Z,91.10
2019-03-29T07:42:06.460Z,90.90
2019-03-29T07:44:34.549Z,90.40
2019-03-29T07:47:02.419Z,90.10
2019-03-29T07:49:30.520Z,89.30
2019-03-29T07:51:58.489Z,88.70
2019-03-29T07:54:26.507Z,88.80
2019-03-29T07:56:54.580Z,87.90
2019-03-29T07:59:23.332Z,86.30
2019-03-29T08:01:51.509Z,85.80
2019-03-29T08:04:21.674Z,84.10
2019-03-29T08:06:49.294Z,83.80
2019-03-29T08:09:22.723Z,83.40
2019-03-29T08:11:47.068Z,82.60
2019-03-29T08:14:15.186Z,83.00
2019-03-29T08:16:43.229Z,82.40
2019-03-29T08:19:11.297Z,81.40
2019-03-29T08:21:39.273Z,81.50
2019-03-29T08:24:07.284Z,80.40
2019-03-29T08:26:35.383Z,80.80
2019-03-29T08:29:03.442Z,79.60
2019-03-29T08:31:31.412Z,79.50
2019-03-29T08:33:59.381Z,78.70
2019-03-29T08:36:27.449Z,78.60
2019-03-29T08:38:55.434Z,77.40
2019-03-29T08:41:23.396Z,77.60
2019-03-29T08:43:51.347Z,76.70
2019-03-29T08:46:19.329Z,76.50
2019-03-29T08:48:47.363Z,75.90
2019-03-29T08:51:15.354Z,75.40
2019-03-29T08:53:43.212Z,76.20
2019-03-29T08:56:11.285Z,75.60
2019-03-29T08:58:39.364Z,75.50
2019-03-29T09:01:07.349Z,74.30
2019-03-29T09:03:35.741Z,73.50
2019-03-29T09:06:03.784Z,72.80
2019-03-29T09:08:31.753Z,72.30
2019-03-29T09:10:59.727Z,73.00
2019-03-29T09:13:27.820Z,71.50
2019-03-29T09:15:55.792Z,72.30
2019-03-29T09:18:25.865Z,71.30
2019-03-29T09:20:53.682Z,70.30
2019-03-29T09:23:21.658Z,71.80
2019-03-29T09:25:49.617Z,71.20
2019-03-29T09:28:17.787Z,69.30
2019-03-29T09:30:45.929Z,69.70
2019-03-29T09:33:13.895Z,69.70
2019-03-29T09:35:42.929Z,69.80
2019-03-29T09:38:11.265Z,70.50
2019-03-29T09:40:39.253Z,68.70
2019-03-29T09:43:08.132Z,68.50
2019-03-29T09:45:36.606Z,67.60
2019-03-29T09:48:04.717Z,68.10
2019-03-29T09:50:32.989Z,68.00
2019-03-29T09:53:01.643Z,68.20
2019-03-29T09:55:29.734Z,68.00
2019-03-29T09:57:57.697Z,67.60
2019-03-29T10:00:25.684Z,67.70
2019-03-29T10:02:53.685Z,68.20
2019-03-29T10:05:21.656Z,68.90
2019-03-29T10:07:49.737Z,68.10
2019-03-29T10:10:17.712Z,69.00
2019-03-29T10:12:45.709Z,67.90
2019-03-29T10:15:13.665Z,67.00
2019-03-29T10:17:41.737Z,67.10
2019-03-29T10:20:09.953Z,66.70
2019-03-29T10:22:37.921Z,67.00
2019-03-29T10:25:18.276Z,67.00
2019-03-29T10:27:35.824Z,68.30
2019-03-29T10:30:05.477Z,66.20
2019-03-29T10:32:33.388Z,65.50
2019-03-29T10:35:01.470Z,65.90
2019-03-29T10:37:29.464Z,65.30
2019-03-29T10:39:57.428Z,64.90
2019-03-29T10:42:25.480Z,66.20
2019-03-29T10:44:53.366Z,65.40
2019-03-29T10:47:21.457Z,66.00
2019-03-29T10:49:49.484Z,65.00
2019-03-29T10:52:17.488Z,64.70
2019-03-29T10:54:45.454Z,62.70
2019-03-29T10:57:13.420Z,63.70
2019-03-29T10:59:41.543Z,64.20
2019-03-29T11:02:09.594Z,63.70
2019-03-29T11:04:37.550Z,64.00
2019-03-29T11:07:05.533Z,63.70
2019-03-29T11:09:36.789Z,62.90
2019-03-29T11:12:03.419Z,61.50
2019-03-29T11:14:31.389Z,60.30
2019-03-29T11:16:59.349Z,62.40
2019-03-29T11:19:27.349Z,65.40
2019-03-29T11:21:55.340Z,59.00
2019-03-29T11:24:23.336Z,57.60
2019-03-29T11:26:51.304Z,58.30
2019-03-29T11:29:19.307Z,58.40
2019-03-29T11:31:47.285Z,57.30
2019-03-29T11:34:15.254Z,58.10
2019-03-29T11:36:43.312Z,60.10
2019-03-29T11:39:11.296Z,59.10
2019-03-29T11:41:39.269Z,58.40
2019-03-29T11:44:07.248Z,58.50
2019-03-29T11:46:35.320Z,57.20
2019-03-29T11:49:03.377Z,57.40
2019-03-29T11:51:31.350Z,57.60
2019-03-29T11:53:59.413Z,57.80
2019-03-29T11:56:27.412Z,58.20
2019-03-29T11:58:55.388Z,58.00
2019-03-29T12:01:23.370Z,58.50
2019-03-29T12:03:51.448Z,58.60
2019-03-29T12:06:19.464Z,59.70
2019-03-29T12:08:47.538Z,58.90
2019-03-29T12:11:15.532Z,59.40
2019-03-29T12:13:43.610Z,57.40
2019-03-29T12:16:11.684Z,57.30
2019-03-29T12:18:39.788Z,57.30
2019-03-29T12:21:07.800Z,58.50
2019-03-29T12:23:35.864Z,57.80
2019-03-29T12:26:04.044Z,58.10
2019-03-29T12:28:32.031Z,57.50
2019-03-29T12:31:00.421Z,57.60
2019-03-29T12:33:28.484Z,56.00
2019-03-29T12:35:56.601Z,56.50
2019-03-29T12:38:24.668Z,56.90
2019-03-29T12:40:52.632Z,57.20
2019-03-29T12:43:20.730Z,58.00
2019-03-29T12:45:48.772Z,57.40
2019-03-29T12:48:16.756Z,57.50
2019-03-29T12:50:44.743Z,55.60
2019-03-29T12:53:12.703Z,55.80
2019-03-29T12:55:40.724Z,55.70
2019-03-29T12:58:08.698Z,55.10
2019-03-29T13:00:36.772Z,55.60
2019-03-29T13:03:04.734Z,54.40
2019-03-29T13:05:32.826Z,55.70
2019-03-29T13:08:00.852Z,54.20
2019-03-29T13:10:28.931Z,55.70
2019-03-29T13:13:00.231Z,55.50
2019-03-29T13:15:26.700Z,55.20
2019-03-29T13:17:54.691Z,55.50
2019-03-29T13:20:22.663Z,54.90
2019-03-29T13:22:50.657Z,55.10
2019-03-29T13:25:18.884Z,55.20
2019-03-29T13:27:46.869Z,55.00
2019-03-29T13:30:17.199Z,55.30
2019-03-29T13:32:44.826Z,55.20
2019-03-29T13:35:12.810Z,55.60
2019-03-29T13:37:40.895Z,54.60
2019-03-29T13:40:09.143Z,55.20
2019-03-29T13:42:37.116Z,54.20
2019-03-29T13:45:06.424Z,54.10
2019-03-29T13:47:34.800Z,53.80
2019-03-29T13:50:02.973Z,54.00
2019-03-29T13:52:31.307Z,56.00
2019-03-29T13:54:59.466Z,54.30
2019-03-29T13:57:27.455Z,54.60
2019-03-29T13:59:55.412Z,55.70
2019-03-29T14:02:23.403Z,54.40
2019-03-29T14:04:51.366Z,54.90
2019-03-29T14:07:19.487Z,55.40
2019-03-29T14:09:47.473Z,55.30
2019-03-29T14:12:15.472Z,54.30
2019-03-29T14:14:43.459Z,54.30
2019-03-29T14:17:11.436Z,53.20
2019-03-29T14:19:39.507Z,53.80
2019-03-29T14:22:07.415Z,54.10
2019-03-29T14:24:35.512Z,54.90
2019-03-29T14:27:03.612Z,54.90
2019-03-29T14:29:31.588Z,54.00
2019-03-29T14:31:59.521Z,54.30
2019-03-29T14:34:27.510Z,54.30
2019-03-29T14:36:55.482Z,54.30
2019-03-29T14:39:23.468Z,54.90
2019-03-29T14:41:51.448Z,54.60
2019-03-29T14:44:19.672Z,54.20
2019-03-29T14:46:47.744Z,54.20
2019-03-29T14:49:15.856Z,54.70
2019-03-29T14:51:43.818Z,54.20
2019-03-29T14:54:11.883Z,54.40
2019-03-29T14:56:39.881Z,54.50
2019-03-29T14:59:07.851Z,54.60
2019-03-29T15:01:35.829Z,54.40
2019-03-29T15:04:03.980Z,55.10
2019-03-29T15:06:31.949Z,54.50
2019-03-29T15:09:01.829Z,53.80
2019-03-29T15:11:29.805Z,53.70
2019-03-29T15:13:57.789Z,53.60
2019-03-29T15:16:25.832Z,53.00
2019-03-29T15:18:53.701Z,53.20
2019-03-29T15:21:21.765Z,52.70
2019-03-29T15:23:49.902Z,53.40
2019-03-29T15:26:17.948Z,53.90
2019-03-29T15:28:45.803Z,54.30
2019-03-29T15:31:13.578Z,53.60
2019-03-29T15:33:41.493Z,53.30
2019-03-29T15:36:09.329Z,52.90
2019-03-29T15:38:37.408Z,52.90
2019-03-29T15:41:05.448Z,52.30
2019-03-29T15:43:33.473Z,51.90
2019-03-29T15:46:01.445Z,51.90
2019-03-29T15:48:29.425Z,52.50
2019-03-29T15:50:57.423Z,54.60
2019-03-29T15:53:25.389Z,53.10
2019-03-29T15:55:53.370Z,53.20
2019-03-29T15:58:21.371Z,52.90
2019-03-29T16:00:49.346Z,52.40
2019-03-29T16:03:17.316Z,52.20
2019-03-29T16:05:48.347Z,52.70
2019-03-29T16:08:15.212Z,52.60
2019-03-29T16:10:43.198Z,52.90
2019-03-29T16:13:11.188Z,53.40
2019-03-29T16:15:39.164Z,53.30
2019-03-29T16:18:07.134Z,53.60
2019-03-29T16:20:35.104Z,53.80
2019-03-29T16:23:03.076Z,53.90
2019-03-29T16:25:31.088Z,53.80
2019-03-29T16:27:59.177Z,53.30
2019-03-29T16:30:27.155Z,53.50
2019-03-29T16:32:55.138Z,54.20
2019-03-29T16:35:23.259Z,54.10
2019-03-29T16:37:56.920Z,54.10
2019-03-29T16:40:21.196Z,54.50
2019-03-29T16:42:49.215Z,54.50
2019-03-29T16:45:17.201Z,54.60
2019-03-29T16:47:45.296Z,54.30
2019-03-29T16:50:13.480Z,54.40
2019-03-29T16:52:41.446Z,54.80
2019-03-29T16:55:13.599Z,54.10
2019-03-29T16:57:41.174Z,53.80
2019-03-29T17:00:12.584Z,53.80
2019-03-29T17:02:40.795Z,54.40
2019-03-29T17:05:08.960Z,54.90
2019-03-29T17:07:36.942Z,55.00
2019-03-29T17:10:05.668Z,55.40
2019-03-29T17:12:33.765Z,55.10
2019-03-29T17:15:01.745Z,54.80
2019-03-29T17:17:29.719Z,55.90
2019-03-29T17:19:57.721Z,55.20
2019-03-29T17:22:25.690Z,54.90
2019-03-29T17:24:57.272Z,54.80
2019-03-29T17:27:23.448Z,55.70
2019-03-29T17:29:51.428Z,55.00
2019-03-29T17:32:21.536Z,55.30
2019-03-29T17:34:49.329Z,55.30
2019-03-29T17:37:17.298Z,55.50
2019-03-29T17:39:45.728Z,55.30
2019-03-29T17:42:13.804Z,55.90
2019-03-29T17:44:41.865Z,55.60
2019-03-29T17:47:09.860Z,56.20
2019-03-29T17:49:37.848Z,56.40
2019-03-29T17:52:05.910Z,56.70
2019-03-29T17:54:33.929Z,57.10
2019-03-29T17:57:01.920Z,57.30
2019-03-29T17:59:29.910Z,57.70
2019-03-29T18:02:08.763Z,60.20
2019-03-29T18:04:27.652Z,62.10
2019-03-29T18:06:55.712Z,59.90
2019-03-29T18:09:23.804Z,63.60
2019-03-29T18:11:51.781Z,60.90
2019-03-29T18:14:19.756Z,61.70
2019-03-29T18:16:47.816Z,61.70
2019-03-29T18:19:15.797Z,62.50
2019-03-29T18:21:43.796Z,62.00
2019-03-29T18:24:11.769Z,65.30
2019-03-29T18:26:39.753Z,66.90
2019-03-29T18:29:07.847Z,64.10
2019-03-29T18:31:35.897Z,67.00
2019-03-29T18:34:04.385Z,66.00
2019-03-29T18:36:32.777Z,66.90
2019-03-29T18:39:00.844Z,67.70
2019-03-29T18:41:28.837Z,67.00
2019-03-29T18:43:56.804Z,66.10
2019-03-29T18:46:24.785Z,67.80
2019-03-29T18:48:52.863Z,67.70
2019-03-29T18:51:20.825Z,68.50
2019-03-29T18:53:48.845Z,69.60
2019-03-29T18:56:16.919Z,69.40
2019-03-29T18:58:44.961Z,71.30
2019-03-29T19:01:13.152Z,71.90
2019-03-29T19:03:41.123Z,69.30
2019-03-29T19:06:09.172Z,68.40
2019-03-29T19:08:37.261Z,68.00
2019-03-29T19:11:05.238Z,66.60
2019-03-29T19:13:33.213Z,66.00
2019-03-29T19:16:01.292Z,65.80
2019-03-29T19:18:29.275Z,65.70
2019-03-29T19:20:57.249Z,65.50
2019-03-29T19:23:25.232Z,65.90
2019-03-29T19:25:53.192Z,65.90
2019-03-29T19:28:21.084Z,66.00
2019-03-29T19:30:49.124Z,65.40
2019-03-29T19:33:17.197Z,66.40
2019-03-29T19:35:45.173Z,66.50
2019-03-29T19:38:13.179Z,67.30
2019-03-29T19:40:41.214Z,67.10
2019-03-29T19:43:09.261Z,67.20
2019-03-29T19:45:37.195Z,67.70
2019-03-29T19:48:05.250Z,68.00
2019-03-29T19:50:33.225Z,67.00
2019-03-29T19:53:01.084Z,67.70
2019-03-29T19:55:29.222Z,68.40
2019-03-29T19:57:57.718Z,70.30
2019-03-29T20:00:36.442Z,68.90
2019-03-29T20:03:04.423Z,71.60
2019-03-29T20:05:32.412Z,71.00
2019-03-29T20:08:00.392Z,72.50
2019-03-29T20:10:28.369Z,71.90
2019-03-29T20:12:56.539Z,73.20
2019-03-29T20:15:24.624Z,73.60
2019-03-29T20:17:52.606Z,73.70
2019-03-29T20:20:24.526Z,73.10
2019-03-29T20:22:53.710Z,72.10
2019-03-29T20:25:21.731Z,71.40
2019-03-29T20:27:49.837Z,71.30
2019-03-29T20:30:17.800Z,70.80
2019-03-29T20:32:45.785Z,69.90
2019-03-29T20:35:13.806Z,69.80
2019-03-29T20:37:42.343Z,70.60
2019-03-29T20:40:10.477Z,71.00
2019-03-29T20:42:38.445Z,70.30
2019-03-29T20:45:07.100Z,69.80
2019-03-29T20:47:42.042Z,70.30
2019-03-29T20:50:05.204Z,71.30
2019-03-29T20:52:33.184Z,71.20
2019-03-29T20:55:01.206Z,72.00
2019-03-29T20:57:29.177Z,72.50
2019-03-29T20:59:57.193Z,73.90
2019-03-29T21:02:25.181Z,72.30
2019-03-29T21:04:53.260Z,72.20
2019-03-29T21:07:21.240Z,73.20
2019-03-29T21:09:49.367Z,73.70
2019-03-29T21:12:17.317Z,74.20
2019-03-29T21:14:45.402Z,74.60
2019-03-29T21:17:13.568Z,75.80
2019-03-29T21:19:41.545Z,75.80
2019-03-29T21:22:09.453Z,76.20
2019-03-29T21:24:37.412Z,76.70
2019-03-29T21:27:05.386Z,77.60
2019-03-29T21:29:34.712Z,76.30
2019-03-29T21:32:02.702Z,76.00
2019-03-29T21:34:30.683Z,76.60
2019-03-29T21:36:58.895Z,75.70
2019-03-29T21:39:26.861Z,75.50
2019-03-29T21:41:54.865Z,76.40
2019-03-29T21:44:22.960Z,76.20
2019-03-29T21:46:50.920Z,75.90
2019-03-29T21:49:18.911Z,75.90
2019-03-29T21:51:46.869Z,75.90
2019-03-29T21:54:14.941Z,75.30
2019-03-29T21:56:42.931Z,74.60
2019-03-29T21:59:10.996Z,74.80
2019-03-29T22:01:39.088Z,74.30
2019-03-29T22:04:07.087Z,73.90
2019-03-29T22:06:35.170Z,73.70
2019-03-29T22:09:05.192Z,73.60
2019-03-29T22:11:33.190Z,74.00
2019-03-29T22:14:01.322Z,73.90
2019-03-29T22:16:29.259Z,74.10
2019-03-29T22:18:57.261Z,74.00
2019-03-29T22:21:25.248Z,74.00
2019-03-29T22:23:53.220Z,74.20
2019-03-29T22:26:21.336Z,74.00
2019-03-29T22:28:49.747Z,74.40
2019-03-29T22:31:18.945Z,75.10
2019-03-29T22:33:47.280Z,75.90
2019-03-29T22:36:15.296Z,76.50
2019-03-29T22:38:43.313Z,77.10
2019-03-29T22:41:11.560Z,78.30
2019-03-29T22:43:39.588Z,78.20
2019-03-29T22:46:07.568Z,78.60
2019-03-29T22:48:35.674Z,79.20
2019-03-29T22:51:03.900Z,79.70
2019-03-29T22:53:31.890Z,79.90
2019-03-29T22:55:59.869Z,80.80
2019-03-29T22:58:28.569Z,80.70
2019-03-29T23:00:57.563Z,80.90
2019-03-29T23:03:25.529Z,81.00
2019-03-29T23:05:53.488Z,81.50
2019-03-29T23:08:21.469Z,81.80
2019-03-29T23:10:49.493Z,82.30
2019-03-29T23:13:17.589Z,82.30
2019-03-29T23:15:45.555Z,82.70
2019-03-29T23:18:13.527Z,82.90
2019-03-29T23:20:41.612Z,83.10
2019-03-29T23:23:09.577Z,83.40
2019-03-29T23:25:37.557Z,83.60
2019-03-29T23:28:05.546Z,83.60
2019-03-29T23:30:33.645Z,84.10
2019-03-29T23:33:01.717Z,84.10
2019-03-29T23:35:29.718Z,83.60
2019-03-29T23:37:57.690Z,84.00
2019-03-29T23:40:25.704Z,84.10
2019-03-29T23:42:53.824Z,84.10
2019-03-29T23:45:21.784Z,84.30
2019-03-29T23:47:49.749Z,84.60
2019-03-29T23:50:17.800Z,85.00
2019-03-29T23:52:45.859Z,85.90
2019-03-29T23:55:13.811Z,85.40
2019-03-29T23:57:41.824Z,85.70
